Sacre-Coeur, Canada
Current Conditions -  °F | °C
As of 2:00 PM on Thursday 30 Oct 2014 (Local Time) from CYYY Reporting Station
Broken Clouds Broken Clouds  
Wind Chill:   Ceiling: 5000
Heat Index:   Visibility: 30mi
Dew Point:   Wind: 12mph
Humidity: 70%   Direction: 250°WSW
Pressure: 29.81"   Gusts: NA
Location:  48.43°N, 68.58°W
Report Text: CYYY 301800Z 25010KT 30SM SCT025 BKN050 06/01 A2981 RMK SC3SC4 SLP097
Loading
Personal Weather Stations






























Interactive Weather Map
Tropical Storm Tracking
New forecast layout! Learn more

10-Day Weather Forecast

Advertisements
Track Severe Weather on mobile